Time;durP1;ratioP1;P1;durP2;ratioP2;P2;SDS_P1;SDS_P2;PMS_P1;PMS_P2;Temp;Humidity;BMP_temperature;BMP_pressure;BME280_temperature;BME280_humidity;BME280_pressure;Samples;Min_cycle;Max_cycle;Signal;HPM_P1;HPM_P2
2023/02/19 00:00:29;;;;;;;15.38;9.50;;;;;;;9.27;100.00;101526.50;4995714;28;20057;-82
2023/02/19 00:02:56;;;;;;;13.75;9.52;;;;;;;9.29;100.00;101524.59;4994626;28;20030;-82
2023/02/19 00:05:22;;;;;;;13.07;9.30;;;;;;;9.28;100.00;101530.72;4990500;28;20117;-79
2023/02/19 00:07:48;;;;;;;17.40;9.80;;;;;;;9.35;100.00;101531.84;5004652;28;20399;-79
2023/02/19 00:10:13;;;;;;;14.60;10.35;;;;;;;9.28;100.00;101528.13;4973026;28;20041;-80
2023/02/19 00:12:39;;;;;;;14.13;9.52;;;;;;;9.22;100.00;101533.84;4977427;28;20113;-80
2023/02/19 00:15:04;;;;;;;15.43;9.82;;;;;;;9.31;100.00;101535.66;4990127;28;20029;-81
2023/02/19 00:17:30;;;;;;;15.15;9.32;;;;;;;9.27;100.00;101539.44;4975585;28;20061;-80
2023/02/19 00:19:56;;;;;;;18.17;9.68;;;;;;;9.24;100.00;101524.16;4981217;28;20032;-81
2023/02/19 00:22:22;;;;;;;13.02;8.55;;;;;;;9.20;100.00;101525.38;4990910;28;20678;-81
2023/02/19 00:24:48;;;;;;;16.58;9.35;;;;;;;9.20;100.00;101530.56;5014135;28;20079;-80
2023/02/19 00:27:13;;;;;;;18.45;9.52;;;;;;;9.24;100.00;101519.81;4991002;28;20058;-81
2023/02/19 00:29:39;;;;;;;16.17;9.70;;;;;;;9.19;100.00;101515.97;4991717;28;20033;-82
2023/02/19 00:32:04;;;;;;;16.83;10.32;;;;;;;9.17;100.00;101518.69;4989695;28;20437;-81
2023/02/19 00:34:30;;;;;;;16.05;10.38;;;;;;;9.18;100.00;101522.91;4988298;28;20603;-83
2023/02/19 00:36:55;;;;;;;17.77;10.45;;;;;;;9.13;100.00;101519.88;4975343;28;20038;-80
2023/02/19 00:39:22;;;;;;;19.05;11.07;;;;;;;9.10;100.00;101512.41;4982569;28;20692;-81
2023/02/19 00:41:48;;;;;;;15.07;9.70;;;;;;;9.05;100.00;101515.34;4980804;28;20084;-81
2023/02/19 00:44:13;;;;;;;17.73;10.15;;;;;;;9.04;100.00;101513.72;4991989;28;20034;-80
2023/02/19 00:46:46;;;;;;;19.00;10.95;;;;;;;9.11;100.00;101514.03;4993679;28;20125;-81
2023/02/19 00:49:14;;;;;;;;;;;;;;;9.22;100.00;101510.53;4995038;28;20053;-83
2023/02/19 00:51:39;;;;;;;20.85;11.07;;;;;;;9.26;100.00;101502.38;4996182;28;19956;-79
2023/02/19 00:54:05;;;;;;;17.13;10.45;;;;;;;9.15;100.00;101500.72;4992741;28;20088;-81
2023/02/19 00:56:31;;;;;;;15.18;9.90;;;;;;;9.14;100.00;101504.25;4991669;28;20049;-80
2023/02/19 00:58:57;;;;;;;16.35;9.65;;;;;;;9.15;100.00;101503.31;4993572;28;20475;-81
2023/02/19 01:01:22;;;;;;;20.13;10.77;;;;;;;9.08;100.00;101504.75;4993727;28;20042;-82
2023/02/19 01:03:49;;;;;;;19.50;10.55;;;;;;;9.16;100.00;101504.94;4994235;28;20058;-80
2023/02/19 01:06:17;;;;;;;22.35;10.15;;;;;;;9.13;100.00;101494.00;4995520;28;20630;-82
2023/02/19 01:08:43;;;;;;;19.13;10.13;;;;;;;9.13;100.00;101492.25;4992673;28;20034;-81
2023/02/19 01:11:09;;;;;;;19.50;10.18;;;;;;;9.18;100.00;101501.41;4988522;28;20034;-81
2023/02/19 01:13:35;;;;;;;16.48;9.77;;;;;;;9.12;100.00;101495.78;4979179;28;20026;-81
2023/02/19 01:16:12;;;;;;;24.02;10.15;;;;;;;9.20;100.00;101500.31;4992050;28;20065;-81
2023/02/19 01:18:38;;;;;;;16.42;9.90;;;;;;;9.26;100.00;101492.03;4982114;28;20530;-82
2023/02/19 01:21:10;;;;;;;19.42;10.48;;;;;;;9.39;100.00;101496.97;4992083;28;20134;-81
2023/02/19 01:23:36;;;;;;;16.27;9.27;;;;;;;9.34;100.00;101493.97;4991607;28;20049;-82
2023/02/19 01:26:07;;;;;;;18.83;9.10;;;;;;;9.26;100.00;101498.97;4994921;28;20439;-82
2023/02/19 01:28:33;;;;;;;17.85;9.90;;;;;;;9.25;100.00;101503.34;4992246;28;20040;-78
2023/02/19 01:31:07;;;;;;;17.90;9.63;;;;;;;9.21;100.00;101508.88;4991286;28;20049;-82
2023/02/19 01:33:32;;;;;;;20.42;10.55;;;;;;;9.25;100.00;101498.16;4993852;28;20488;-82
2023/02/19 01:35:58;;;;;;;21.63;11.38;;;;;;;9.27;100.00;101508.38;4988502;28;20073;-82
2023/02/19 01:38:24;;;;;;;23.60;11.32;;;;;;;9.32;100.00;101512.22;4979931;28;20147;-82
2023/02/19 01:41:00;;;;;;;26.88;10.55;;;;;;;9.37;100.00;101501.47;4977286;28;20498;-81
2023/02/19 01:43:27;;;;;;;24.40;11.60;;;;;;;9.41;100.00;101494.25;4973130;28;20026;-79
2023/02/19 01:45:52;;;;;;;23.92;11.40;;;;;;;9.29;100.00;101509.88;4972643;28;20044;-81
2023/02/19 01:48:33;;;;;;;22.90;12.20;;;;;;;9.32;100.00;101509.63;4992668;28;20038;-81
2023/02/19 01:51:08;;;;;;;22.70;10.98;;;;;;;9.28;100.00;101517.78;4991726;28;20158;-82
2023/02/19 01:53:38;;;;;;;25.23;12.57;;;;;;;9.22;100.00;101513.13;4989442;28;20026;-82
2023/02/19 01:56:05;;;;;;;28.55;12.07;;;;;;;9.24;100.00;101516.41;4974522;28;20044;-79
2023/02/19 01:58:34;;;;;;;24.73;13.27;;;;;;;9.25;100.00;101520.63;4990331;28;20471;-80
2023/02/19 02:01:03;;;;;;;23.60;12.68;;;;;;;9.24;100.00;101516.41;4992088;28;20041;-82
2023/02/19 02:03:30;;;;;;;29.10;13.23;;;;;;;9.23;100.00;101519.94;4994756;28;20037;-80
2023/02/19 02:06:04;;;;;;;27.02;13.10;;;;;;;9.22;100.00;101526.88;4989671;28;20053;-82
2023/02/19 02:11:19;;;;;;;29.25;13.88;;;;;;;9.07;100.00;101521.22;5004967;28;20112;-78
2023/02/19 02:13:45;;;;;;;29.23;13.23;;;;;;;9.15;100.00;101525.75;5004987;28;20523;-80
2023/02/19 02:16:37;;;;;;;28.52;15.00;;;;;;;9.20;100.00;101525.38;4991484;28;20438;-82
2023/02/19 02:19:27;;;;;;;29.60;14.00;;;;;;;9.05;100.00;101523.13;4977168;28;20100;-82
2023/02/19 02:22:11;;;;;;;27.05;13.25;;;;;;;9.12;100.00;101526.84;4976174;28;20045;-81
2023/02/19 02:25:04;;;;;;;26.60;12.75;;;;;;;9.20;100.00;101525.38;4991925;28;20057;-84
2023/02/19 02:27:43;;;;;;;29.00;14.13;;;;;;;9.11;100.00;101524.38;4976265;28;20080;-81
2023/02/19 02:30:33;;;;;;;29.80;12.45;;;;;;;9.13;100.00;101517.31;4990119;28;20113;-81
2023/02/19 02:33:25;;;;;;;24.48;12.60;;;;;;;9.13;100.00;101528.47;4992765;28;20031;-81
2023/02/19 02:36:07;;;;;;;21.92;12.57;;;;;;;9.12;100.00;101526.84;5004329;28;20026;-80
2023/02/19 02:38:40;;;;;;;27.77;12.90;;;;;;;9.16;100.00;101515.28;4973611;28;20038;-82
2023/02/19 02:41:07;;;;;;;33.05;12.48;;;;;;;9.15;100.00;101521.41;5004766;28;20034;-80
2023/02/19 02:43:32;;;;;;;24.05;12.85;;;;;;;9.18;100.00;101512.56;4992961;28;20034;-82
2023/02/19 02:45:58;;;;;;;24.73;12.45;;;;;;;9.20;100.00;101521.00;5009577;28;20402;-81
2023/02/19 02:48:40;;;;;;;27.77;12.60;;;;;;;9.16;100.00;101523.03;4993290;28;20083;-80
2023/02/19 02:51:19;;;;;;;27.27;13.73;;;;;;;9.15;100.00;101516.25;4973315;28;20116;-80
2023/02/19 02:56:56;;;;;;;29.95;14.40;;;;;;;9.07;100.00;101521.22;5008455;28;20088;-81
2023/02/19 02:59:27;;;;;;;31.83;14.32;;;;;;;9.13;100.00;101538.00;5009659;28;20454;-81
2023/02/19 03:02:09;;;;;;;26.73;12.73;;;;;;;9.06;100.00;101524.78;4992689;28;20029;-82
2023/02/19 03:07:58;;;;;;;28.37;15.50;;;;;;;9.03;100.00;101535.38;5008129;28;20042;-77
2023/02/19 03:10:34;;;;;;;29.85;15.45;;;;;;;9.15;100.00;101539.53;4977331;28;20034;-80
2023/02/19 03:21:45;;;;;;;33.10;16.38;;;;;;;8.94;100.00;101552.47;4983068;28;20498;-82
2023/02/19 03:26:59;;;;;;;28.83;14.68;;;;;;;9.09;100.00;101550.38;5007024;28;20068;-78
2023/02/19 03:29:31;;;;;;;34.10;14.73;;;;;;;9.08;100.00;101559.09;4973092;28;20152;-81
2023/02/19 03:32:08;;;;;;;32.72;16.17;;;;;;;9.10;100.00;101554.59;4990620;28;20041;-82
2023/02/19 03:34:37;;;;;;;30.95;15.88;;;;;;;9.00;100.00;101558.88;4988482;28;20087;-80
2023/02/19 03:37:24;;;;;;;36.13;16.50;;;;;;;8.94;100.00;101556.81;4987169;28;20034;-80
2023/02/19 03:39:52;;;;;;;34.35;16.00;;;;;;;8.99;100.00;101561.63;4987853;28;20057;-81
2023/02/19 03:42:43;;;;;;;35.08;16.95;;;;;;;9.07;100.00;101556.63;4987717;28;20037;-80
2023/02/19 03:45:32;;;;;;;33.90;16.15;;;;;;;9.11;100.00;101551.06;4988338;28;20025;-81
2023/02/19 03:48:22;;;;;;;38.45;17.02;;;;;;;8.98;100.00;101562.56;4987867;28;20049;-81
2023/02/19 03:51:13;;;;;;;36.65;16.48;;;;;;;8.92;100.00;101556.94;4990074;28;20123;-80
2023/02/19 03:53:54;;;;;;;37.88;17.08;;;;;;;8.97;100.00;101566.94;4978939;28;20445;-81
2023/02/19 03:56:44;;;;;;;37.78;17.58;;;;;;;8.91;100.00;101567.41;4990916;28;20100;-81
2023/02/19 03:59:19;;;;;;;37.70;17.98;;;;;;;8.95;100.00;101577.41;4994358;28;20103;-83
2023/02/19 04:01:53;;;;;;;38.35;17.73;;;;;;;8.97;100.00;101579.84;4989233;28;20068;-83
2023/02/19 04:04:34;;;;;;;40.65;17.60;;;;;;;8.89;100.00;101582.25;4993257;28;20033;-80
2023/02/19 04:07:00;;;;;;;35.60;16.65;;;;;;;8.93;100.00;101575.88;4996558;28;20112;-81
2023/02/19 04:09:36;;;;;;;41.10;18.90;;;;;;;9.02;100.00;101579.47;4995101;28;20040;-77
2023/02/19 04:12:07;;;;;;;37.95;17.38;;;;;;;9.03;100.00;101584.53;4994216;28;20030;-80
2023/02/19 04:14:59;;;;;;;39.15;17.08;;;;;;;9.05;100.00;101595.56;4993361;28;20052;-81
2023/02/19 04:17:34;;;;;;;41.45;17.73;;;;;;;8.91;100.00;101596.69;4994149;28;20080;-82
2023/02/19 04:20:04;;;;;;;47.55;19.67;;;;;;;8.90;100.00;101600.22;4993673;28;20038;-82
2023/02/19 04:22:30;;;;;;;37.33;18.85;;;;;;;8.93;100.00;101601.75;4978352;28;20069;-82
2023/02/19 04:24:55;;;;;;;37.13;17.13;;;;;;;8.98;100.00;101606.53;5001769;28;20582;-80
2023/02/19 04:27:21;;;;;;;43.65;17.90;;;;;;;8.93;100.00;101606.94;4993036;28;20119;-76
2023/02/19 04:29:46;;;;;;;39.17;17.88;;;;;;;9.07;100.00;101603.19;4998300;28;20037;-80
2023/02/19 04:32:13;;;;;;;42.03;18.75;;;;;;;9.00;100.00;101605.47;4982733;28;20030;-81
2023/02/19 04:34:39;;;;;;;37.33;18.20;;;;;;;8.96;100.00;101617.81;4995916;28;20030;-83
2023/02/19 04:37:05;;;;;;;37.63;17.73;;;;;;;8.96;100.00;101617.81;5016057;28;20038;-83
2023/02/19 04:39:30;;;;;;;42.13;17.50;;;;;;;9.00;100.00;101617.56;4995836;28;20040;-78
2023/02/19 04:41:56;;;;;;;41.17;17.88;;;;;;;8.97;100.00;101623.84;4993324;28;20045;-82
2023/02/19 04:44:21;;;;;;;32.55;16.95;;;;;;;8.86;100.00;101616.13;5000893;28;20530;-79
2023/02/19 04:46:47;;;;;;;33.70;15.55;;;;;;;8.96;100.00;101632.53;4978934;28;20749;-82
2023/02/19 04:49:12;;;;;;;39.78;17.35;;;;;;;8.83;100.00;101627.53;4985597;28;20044;-82
2023/02/19 04:51:38;;;;;;;35.33;16.50;;;;;;;8.79;100.00;101628.72;4996755;28;20052;-79
2023/02/19 04:54:04;;;;;;;37.38;16.17;;;;;;;8.81;100.00;101638.94;4994998;28;20029;-80
2023/02/19 04:56:30;;;;;;;37.55;16.38;;;;;;;8.82;100.00;101641.41;4994501;28;20037;-77
2023/02/19 04:58:56;;;;;;;39.00;16.55;;;;;;;8.84;100.00;101641.28;5005268;28;20030;-82
2023/02/19 05:01:21;;;;;;;38.58;16.48;;;;;;;8.84;100.00;101644.69;4978429;28;20535;-82
2023/02/19 05:03:47;;;;;;;42.40;17.27;;;;;;;8.87;100.00;101648.78;4983082;28;20030;-83
2023/02/19 05:06:13;;;;;;;40.25;16.67;;;;;;;8.81;100.00;101652.69;4982724;28;20499;-79
2023/02/19 05:08:39;;;;;;;36.53;15.00;;;;;;;8.74;100.00;101659.31;4997929;28;20081;-80
2023/02/19 05:11:07;;;;;;;42.05;17.08;;;;;;;8.74;100.00;101664.50;4998862;28;20041;-79
2023/02/19 05:13:32;;;;;;;38.35;16.92;;;;;;;8.71;100.00;101662.16;4978941;28;20089;-82
2023/02/19 05:16:00;;;;;;;44.88;16.48;;;;;;;8.80;100.00;101666.59;4980322;28;20037;-79
2023/02/19 05:18:27;;;;;;;42.40;17.50;;;;;;;8.76;100.00;101678.13;4998209;28;20080;-83
2023/02/19 05:20:53;;;;;;;35.53;15.93;;;;;;;8.81;100.00;101677.75;4995904;28;20038;-83
2023/02/19 05:23:19;;;;;;;37.63;17.92;;;;;;;8.83;100.00;101683.59;4997120;28;20040;-82
2023/02/19 05:25:45;;;;;;;36.35;15.93;;;;;;;8.75;100.00;101679.88;4993497;28;20121;-80
2023/02/19 05:28:16;;;;;;;30.05;15.15;;;;;;;8.66;100.00;101683.19;4999665;28;20651;-81
2023/02/19 05:30:48;;;;;;;39.28;14.45;;;;;;;8.72;100.00;101682.72;4996560;28;20046;-82
2023/02/19 05:33:14;;;;;;;33.92;14.43;;;;;;;8.74;100.00;101686.00;5001382;28;20476;-80
2023/02/19 05:35:41;;;;;;;38.78;12.98;;;;;;;8.73;100.00;101688.69;5009055;28;20058;-80
2023/02/19 05:38:07;;;;;;;40.85;13.88;;;;;;;8.69;100.00;101695.06;5008738;28;20475;-82
2023/02/19 05:40:33;;;;;;;41.47;14.07;;;;;;;8.70;100.00;101694.09;5012393;28;20081;-80
2023/02/19 05:42:59;;;;;;;34.03;14.50;;;;;;;8.71;100.00;101695.75;4979976;28;20376;-78
2023/02/19 05:45:25;;;;;;;31.80;13.98;;;;;;;8.69;100.00;101689.91;5009086;28;20041;-82
2023/02/19 05:47:50;;;;;;;36.70;14.30;;;;;;;8.71;100.00;101706.91;4997445;28;20485;-81
2023/02/19 05:50:16;;;;;;;40.85;13.95;;;;;;;8.64;100.00;101704.94;4998291;28;20091;-81
2023/02/19 05:52:43;;;;;;;36.65;13.57;;;;;;;8.60;100.00;101714.69;5009368;28;20045;-83
2023/02/19 05:55:09;;;;;;;36.08;14.80;;;;;;;8.62;100.00;101696.47;4976491;28;20034;-81
2023/02/19 05:57:41;;;;;;;35.67;14.07;;;;;;;8.60;100.00;101709.53;4997209;28;20036;-81
2023/02/19 06:00:09;;;;;;;38.20;14.23;;;;;;;8.56;100.00;101719.28;5010642;28;20383;-82
2023/02/19 06:02:37;;;;;;;32.83;14.05;;;;;;;8.56;100.00;101721.06;5012266;28;20462;-82
2023/02/19 06:05:03;;;;;;;36.25;13.73;;;;;;;8.60;100.00;101709.53;4996509;28;20038;-82
2023/02/19 06:07:32;;;;;;;32.50;13.90;;;;;;;8.63;100.00;101711.88;4997664;28;20960;-82
2023/02/19 06:09:58;;;;;;;35.63;12.98;;;;;;;8.59;100.00;101713.06;5012457;28;20087;-82
2023/02/19 06:12:23;;;;;;;31.90;12.23;;;;;;;8.65;100.00;101720.34;5014809;28;20034;-82
2023/02/19 06:14:49;;;;;;;33.80;13.13;;;;;;;8.64;100.00;101729.03;4981151;28;20034;-80
2023/02/19 06:17:15;;;;;;;35.15;12.52;;;;;;;8.47;100.00;101725.19;4998101;28;20117;-83
2023/02/19 06:19:41;;;;;;;29.23;11.68;;;;;;;8.60;100.00;101725.03;4981373;28;20036;-81
2023/02/19 06:22:07;;;;;;;30.58;12.07;;;;;;;8.63;100.00;101727.41;4997620;28;20045;-81
2023/02/19 06:24:33;;;;;;;28.48;11.35;;;;;;;8.51;100.00;101729.19;4981129;28;20039;-82
2023/02/19 06:26:58;;;;;;;24.80;11.05;;;;;;;8.47;100.00;101726.94;4989115;28;20049;-80
2023/02/19 06:29:24;;;;;;;30.00;11.18;;;;;;;8.52;100.00;101733.41;4975778;28;20537;-83
2023/02/19 06:31:49;;;;;;;27.65;10.43;;;;;;;8.53;100.00;101739.38;5004139;28;20041;-82
2023/02/19 06:34:15;;;;;;;31.70;10.45;;;;;;;8.52;100.00;101738.56;4990781;28;20128;-82
2023/02/19 06:36:40;;;;;;;30.17;10.02;;;;;;;8.47;100.00;101743.25;4991916;28;20479;-80
2023/02/19 06:39:05;;;;;;;26.20;10.75;;;;;;;8.50;100.00;101744.81;4974332;28;20030;-79
2023/02/19 06:41:31;;;;;;;37.17;11.38;;;;;;;8.54;100.00;101746.22;4991335;28;20030;-81
2023/02/19 06:43:57;;;;;;;26.15;9.93;;;;;;;8.63;100.00;101742.91;4992967;28;20030;-82
2023/02/19 06:46:23;;;;;;;22.13;8.80;;;;;;;8.52;100.00;101756.66;4986128;28;20038;-80
2023/02/19 06:48:48;;;;;;;28.48;8.65;;;;;;;8.50;100.00;101750.78;5000379;28;20048;-81
2023/02/19 06:51:22;;;;;;;25.90;7.78;;;;;;;8.47;100.00;101760.53;4991393;28;20411;-83
2023/02/19 06:53:48;;;;;;;23.95;8.23;;;;;;;8.47;100.00;101760.53;4992287;28;20403;-81
2023/02/19 06:56:32;;;;;;;26.77;8.40;;;;;;;8.35;100.00;101770.03;4993996;28;20042;-81
2023/02/19 06:59:00;;;;;;;27.63;9.07;;;;;;;8.47;100.00;101771.69;5008951;28;20034;-79
2023/02/19 07:01:28;;;;;;;24.70;9.18;;;;;;;8.39;100.00;101787.78;4975811;28;20120;-83
2023/02/19 07:03:53;;;;;;;25.98;9.38;;;;;;;8.43;100.00;101790.97;4996048;28;20041;-81
2023/02/19 07:06:20;;;;;;;23.40;9.20;;;;;;;8.47;100.00;101799.31;4977160;28;20034;-81
2023/02/19 07:08:46;;;;;;;27.63;8.38;;;;;;;8.45;100.00;101799.44;4977142;28;20030;-81
2023/02/19 07:11:11;;;;;;;25.83;7.50;;;;;;;8.37;100.00;101800.00;4990650;28;20445;-81
2023/02/19 07:13:37;;;;;;;25.10;8.90;;;;;;;8.45;100.00;101798.63;4992352;28;20037;-80
2023/02/19 07:16:08;;;;;;;20.05;7.55;;;;;;;8.48;100.00;101808.72;4988964;28;20038;-79
2023/02/19 07:18:34;;;;;;;28.83;8.60;;;;;;;8.45;100.00;101796.84;4993985;28;20084;-81
2023/02/19 07:21:11;;;;;;;24.70;7.80;;;;;;;8.47;100.00;101802.72;4991759;28;20048;-83
2023/02/19 07:23:37;;;;;;;23.48;7.75;;;;;;;8.50;100.00;101809.44;5020552;28;20084;-81
2023/02/19 07:26:04;;;;;;;24.25;6.90;;;;;;;8.45;100.00;101808.97;5007759;28;20103;-80
2023/02/19 07:28:29;;;;;;;26.95;7.45;;;;;;;8.45;100.00;101830.44;5009800;28;20064;-79
2023/02/19 07:31:02;;;;;;;25.98;7.20;;;;;;;8.44;100.00;101825.41;4992825;28;20130;-81
2023/02/19 07:33:28;;;;;;;25.38;8.10;;;;;;;8.35;100.00;101834.66;4978566;28;20029;-80
2023/02/19 07:35:53;;;;;;;20.15;6.60;;;;;;;8.38;100.00;101845.59;4975101;28;20034;-80
2023/02/19 07:38:21;;;;;;;27.42;6.93;;;;;;;8.40;100.00;101850.66;4973915;28;20454;-81
2023/02/19 07:40:52;;;;;;;25.17;6.45;;;;;;;8.38;100.00;101847.31;4992367;28;20042;-82
2023/02/19 07:43:17;;;;;;;34.65;14.10;;;;;;;8.37;100.00;101854.25;4988527;28;20044;-81
2023/02/19 07:45:43;;;;;;;28.80;8.02;;;;;;;8.49;100.00;101867.22;4973228;28;20042;-82
2023/02/19 07:48:09;;;;;;;30.17;7.32;;;;;;;8.44;100.00;101859.00;4990843;28;20033;-80
2023/02/19 07:50:34;;;;;;;23.77;7.28;;;;;;;8.50;100.00;101867.13;4994360;28;20061;-81
2023/02/19 07:53:00;;;;;;;31.08;9.07;;;;;;;8.46;100.00;101870.06;4977755;28;20061;-79
2023/02/19 07:55:26;;;;;;;28.23;7.65;;;;;;;8.57;100.00;101872.66;4997310;28;20100;-82
2023/02/19 07:57:51;;;;;;;27.85;7.63;;;;;;;8.56;100.00;101873.59;4982191;28;20072;-81
2023/02/19 08:00:18;;;;;;;29.95;7.38;;;;;;;8.50;100.00;101885.22;4994659;28;20053;-81
2023/02/19 08:02:59;;;;;;;26.85;8.23;;;;;;;8.51;100.00;101878.28;4996096;28;20025;-82
2023/02/19 08:05:40;;;;;;;30.33;7.55;;;;;;;8.52;100.00;101882.53;5007931;28;20046;-79
2023/02/19 08:08:07;;;;;;;40.85;7.60;;;;;;;8.52;100.00;101887.69;5000007;28;20033;-78
2023/02/19 08:13:24;;;;;;;31.60;8.00;;;;;;;8.61;100.00;101887.00;4991840;28;20026;-82
2023/02/19 08:15:52;;;;;;;29.40;7.30;;;;;;;8.57;100.00;101901.91;4992446;28;20038;-79
2023/02/19 08:18:23;;;;;;;21.08;7.13;;;;;;;8.63;100.00;101898.03;5027320;28;20030;-79
2023/02/19 08:20:49;;;;;;;31.58;7.57;;;;;;;8.75;100.00;101904.03;4977472;28;20041;-82
2023/02/19 08:23:16;;;;;;;34.95;7.22;;;;;;;8.77;100.00;101896.97;4995567;28;20052;-83
2023/02/19 08:25:42;;;;;;;25.75;7.00;;;;;;;8.93;100.00;101905.22;4998341;28;20042;-81
2023/02/19 08:28:09;;;;;;;19.85;7.00;;;;;;;9.08;100.00;101910.97;4992743;28;20117;-80
2023/02/19 08:30:37;;;;;;;31.75;7.18;;;;;;;9.11;100.00;101909.91;4994310;28;20098;-79
2023/02/19 08:33:04;;;;;;;18.67;6.63;;;;;;;9.13;100.00;101911.41;5007852;28;21297;-80
2023/02/19 08:35:29;;;;;;;21.30;6.65;;;;;;;9.22;100.00;101911.66;4990069;28;20034;-78
2023/02/19 08:37:58;;;;;;;21.83;6.93;;;;;;;9.42;100.00;101908.34;4977871;28;20046;-81
2023/02/19 08:40:24;;;;;;;24.60;6.90;;;;;;;9.50;100.00;101905.94;5004193;28;20053;-81
2023/02/19 08:42:50;;;;;;;25.23;6.60;;;;;;;9.39;100.00;101911.16;4980831;28;20048;-81
2023/02/19 08:45:16;;;;;;;19.35;6.80;;;;;;;9.12;100.00;101914.97;4973595;28;20525;-81
2023/02/19 08:47:42;;;;;;;23.33;8.88;;;;;;;9.05;100.00;101916.38;5011802;28;20491;-80
2023/02/19 08:50:08;;;;;;;29.77;8.13;;;;;;;8.97;100.00;101918.75;4975725;28;20037;-81
2023/02/19 08:52:34;;;;;;;39.92;13.20;;;;;;;8.90;100.00;101925.31;4975847;28;20021;-81
2023/02/19 08:55:00;;;;;;;27.80;9.80;;;;;;;8.84;100.00;101925.81;5008870;28;20034;-81
2023/02/19 08:57:28;;;;;;;27.40;9.90;;;;;;;8.86;100.00;101922.16;4979607;28;20071;-81
2023/02/19 08:59:55;;;;;;;22.50;8.13;;;;;;;8.85;100.00;101928.25;5013751;28;20026;-82
2023/02/19 09:02:21;;;;;;;26.48;10.48;;;;;;;8.88;100.00;101917.69;4974958;28;20034;-81
2023/02/19 09:04:46;;;;;;;26.48;11.23;;;;;;;8.86;100.00;101923.91;5011178;28;20034;-81
2023/02/19 09:07:12;;;;;;;19.90;6.20;;;;;;;8.95;100.00;101928.38;4977908;28;20446;-82
2023/02/19 09:09:38;;;;;;;23.73;6.70;;;;;;;8.88;100.00;101932.38;4991011;28;20025;-77
2023/02/19 09:12:08;;;;;;;24.52;8.25;;;;;;;8.77;100.00;101934.00;5011871;28;20438;-81
2023/02/19 09:14:34;;;;;;;15.88;5.90;;;;;;;8.96;100.00;101940.38;4996078;28;20029;-79
2023/02/19 09:17:01;;;;;;;23.40;9.00;;;;;;;8.91;100.00;101945.06;4991514;28;20050;-78
2023/02/19 09:19:27;;;;;;;21.08;6.15;;;;;;;8.99;100.00;101945.31;5025808;28;20038;-81
2023/02/19 09:21:53;;;;;;;20.65;7.63;;;;;;;8.96;100.00;101955.88;4992309;28;20427;-81
2023/02/19 09:24:19;;;;;;;24.92;6.47;;;;;;;9.00;100.00;101954.72;4991086;28;20044;-81
2023/02/19 09:26:48;;;;;;;33.35;10.95;;;;;;;9.11;100.00;101953.91;4986382;28;20049;-81
2023/02/19 09:29:14;;;;;;;22.70;8.32;;;;;;;9.08;100.00;101962.72;4982427;28;20617;-79
2023/02/19 09:31:39;;;;;;;23.58;8.25;;;;;;;8.95;100.00;101962.03;4995725;28;20548;-80
2023/02/19 09:34:05;;;;;;;22.83;6.00;;;;;;;8.86;100.00;101967.88;4989484;28;20113;-79
2023/02/19 09:36:32;;;;;;;21.75;6.50;;;;;;;8.90;100.00;101977.06;4989653;28;20041;-82
2023/02/19 09:38:59;;;;;;;14.13;5.35;;;;;;;8.79;100.00;101983.03;5005317;28;20112;-80
2023/02/19 09:41:32;;;;;;;22.00;6.50;;;;;;;8.87;100.00;101980.72;5009299;28;20029;-77
2023/02/19 09:44:00;;;;;;;26.70;7.85;;;;;;;8.89;100.00;101985.75;4994176;28;20042;-79
2023/02/19 09:46:34;;;;;;;24.85;8.55;;;;;;;8.95;100.00;101980.13;4974536;28;20186;-79
2023/02/19 09:49:17;;;;;;;25.33;7.93;;;;;;;9.05;100.00;101982.84;4991193;28;20550;-79
2023/02/19 09:51:47;;;;;;;20.42;7.95;;;;;;;9.12;100.00;101965.91;4987835;28;20092;-79
2023/02/19 09:54:22;;;;;;;15.73;5.47;;;;;;;9.20;100.00;101975.66;4995569;28;20379;-81
2023/02/19 09:56:48;;;;;;;15.50;7.07;;;;;;;9.08;100.00;101980.00;5009313;28;20525;-80
2023/02/19 09:59:21;;;;;;;16.75;6.03;;;;;;;9.11;100.00;101979.78;4996041;28;20041;-80
2023/02/19 10:01:52;;;;;;;17.42;6.72;;;;;;;9.16;100.00;101970.72;4990346;28;20121;-80
2023/02/19 10:04:17;;;;;;;18.77;7.20;;;;;;;9.27;100.00;101988.00;4984875;28;20034;-78
2023/02/19 10:06:43;;;;;;;17.52;7.25;;;;;;;9.48;100.00;101995.06;4971873;28;20099;-81
2023/02/19 10:09:24;;;;;;;11.52;5.43;;;;;;;9.66;100.00;101996.22;4992101;28;20037;-80
2023/02/19 10:11:52;;;;;;;16.52;5.70;;;;;;;9.67;100.00;102009.97;5009432;28;20128;-80
2023/02/19 10:14:35;;;;;;;16.77;6.50;;;;;;;9.72;100.00;102015.63;5012952;28;20030;-79
2023/02/19 10:17:03;;;;;;;14.02;5.93;;;;;;;9.75;100.00;102031.72;5002098;28;20073;-80
2023/02/19 10:19:29;;;;;;;18.05;7.55;;;;;;;9.71;100.00;102039.88;4992034;28;20038;-81
2023/02/19 10:21:55;;;;;;;23.50;8.30;;;;;;;9.67;100.00;102039.28;5005867;28;20410;-81
2023/02/19 10:24:26;;;;;;;19.20;7.43;;;;;;;9.81;100.00;102038.19;4978177;28;20065;-81
2023/02/19 10:26:51;;;;;;;17.75;7.82;;;;;;;9.70;100.00;102033.88;5007459;28;20041;-80
2023/02/19 10:29:18;;;;;;;17.30;7.75;;;;;;;9.66;100.00;102034.22;4991132;28;20034;-81
2023/02/19 10:31:44;;;;;;;17.75;6.40;;;;;;;9.68;100.00;102047.88;4992012;28;20052;-81
2023/02/19 10:34:21;;;;;;;27.08;10.90;;;;;;;9.70;100.00;102056.34;4989906;28;20041;-78
2023/02/19 10:36:52;;;;;;;59.10;24.05;;;;;;;9.72;100.00;102054.47;5018860;28;20510;-79
2023/02/19 10:39:20;;;;;;;23.55;10.23;;;;;;;9.78;100.00;102061.75;4976842;28;20030;-82
2023/02/19 10:41:50;;;;;;;30.23;13.25;;;;;;;9.81;100.00;102068.47;5006085;28;20069;-82
2023/02/19 10:44:28;;;;;;;22.63;7.85;;;;;;;9.76;100.00;102066.25;4993446;28;20498;-80
2023/02/19 10:46:56;;;;;;;14.73;7.57;;;;;;;9.74;100.00;102070.72;4986866;28;20044;-78
2023/02/19 10:49:27;;;;;;;13.10;7.65;;;;;;;9.82;100.00;102077.91;4993626;28;20104;-80
2023/02/19 10:51:54;;;;;;;14.68;6.40;;;;;;;9.77;100.00;102080.00;4988230;28;20037;-80
2023/02/19 10:54:25;;;;;;;13.48;6.90;;;;;;;9.78;100.00;102084.25;4975027;28;20108;-83
2023/02/19 10:56:51;;;;;;;16.90;7.72;;;;;;;9.65;100.00;102089.56;5006763;28;20049;-80
2023/02/19 10:59:25;;;;;;;14.40;6.70;;;;;;;9.59;100.00;102096.03;4998156;28;20475;-82
2023/02/19 11:02:02;;;;;;;17.00;8.63;;;;;;;9.48;100.00;102101.22;4993914;28;20449;-80
2023/02/19 11:04:37;;;;;;;19.08;10.00;;;;;;;9.41;100.00;102100.03;4974475;28;20022;-81
2023/02/19 11:07:13;;;;;;;22.38;10.77;;;;;;;9.49;100.00;102108.03;4990538;28;21199;-80
2023/02/19 11:09:41;;;;;;;23.63;8.70;;;;;;;9.61;100.00;102108.88;4990199;28;20475;-78
2023/02/19 11:12:08;;;;;;;17.23;7.60;;;;;;;9.68;100.00;102103.09;4971570;28;20045;-80
2023/02/19 11:14:34;;;;;;;20.90;11.43;;;;;;;9.90;100.00;102098.84;5006006;28;20041;-78
2023/02/19 11:17:04;;;;;;;20.27;9.23;;;;;;;10.02;100.00;102097.88;4989408;28;20060;-80
2023/02/19 11:19:42;;;;;;;18.48;9.43;;;;;;;10.14;100.00;102096.91;4977443;28;20805;-78
2023/02/19 11:22:41;;;;;;;18.90;9.55;;;;;;;10.20;100.00;102084.41;4974975;28;20026;-79
2023/02/19 11:25:13;;;;;;;16.58;8.45;;;;;;;10.19;100.00;102091.38;4930577;28;20046;-80
2023/02/19 11:28:03;;;;;;;14.95;8.05;;;;;;;10.06;100.00;102085.50;5020855;28;20036;-80
2023/02/19 11:30:29;;;;;;;14.35;7.13;;;;;;;10.02;100.00;102087.53;4988863;28;20073;-80
2023/02/19 11:32:54;;;;;;;15.63;7.15;;;;;;;9.99;100.00;102092.94;4986548;28;20129;-79
2023/02/19 11:35:23;;;;;;;16.10;6.85;;;;;;;9.90;100.00;102088.47;4988564;28;20045;-78
2023/02/19 11:38:00;;;;;;;16.15;7.25;;;;;;;9.82;100.00;102083.06;4988209;28;20100;-76
2023/02/19 11:40:52;;;;;;;15.45;7.15;;;;;;;9.87;100.00;102081.78;4991103;28;20041;-80
2023/02/19 11:43:47;;;;;;;16.27;7.13;;;;;;;9.95;100.00;102078.56;4989853;28;20041;-81
2023/02/19 11:46:15;;;;;;;21.27;10.02;;;;;;;9.81;100.00;102082.22;5006419;28;20041;-80